sensor_id;sensor_type;location;lat;lon;timestamp;P1;durP1;ratioP1;P2;durP2;ratioP2
63203;SDS011;49297;43.210;27.914;2023-12-29T00:00:28;28.10;;;24.23;;
63203;SDS011;49297;43.210;27.914;2023-12-29T00:02:54;24.25;;;21.83;;
63203;SDS011;49297;43.210;27.914;2023-12-29T00:05:20;29.17;;;26.17;;
63203;SDS011;49297;43.210;27.914;2023-12-29T00:07:46;27.53;;;24.57;;
63203;SDS011;49297;43.210;27.914;2023-12-29T00:10:12;37.23;;;33.80;;
63203;SDS011;49297;43.210;27.914;2023-12-29T00:12:37;33.87;;;30.43;;
63203;SDS011;49297;43.210;27.914;2023-12-29T00:15:03;31.20;;;28.07;;
63203;SDS011;49297;43.210;27.914;2023-12-29T00:17:33;31.50;;;28.40;;
63203;SDS011;49297;43.210;27.914;2023-12-29T00:20:05;32.15;;;26.65;;
63203;SDS011;49297;43.210;27.914;2023-12-29T00:22:33;33.10;;;29.58;;
63203;SDS011;49297;43.210;27.914;2023-12-29T00:24:59;31.30;;;28.02;;
63203;SDS011;49297;43.210;27.914;2023-12-29T00:27:25;28.13;;;25.38;;
63203;SDS011;49297;43.210;27.914;2023-12-29T00:29:50;33.28;;;29.17;;
63203;SDS011;49297;43.210;27.914;2023-12-29T00:32:16;27.30;;;24.80;;
63203;SDS011;49297;43.210;27.914;2023-12-29T00:34:42;28.70;;;25.60;;
63203;SDS011;49297;43.210;27.914;2023-12-29T00:37:08;33.85;;;30.52;;
63203;SDS011;49297;43.210;27.914;2023-12-29T00:39:34;30.17;;;26.92;;
63203;SDS011;49297;43.210;27.914;2023-12-29T00:44:45;32.30;;;29.20;;
63203;SDS011;49297;43.210;27.914;2023-12-29T00:47:11;30.00;;;26.85;;
63203;SDS011;49297;43.210;27.914;2023-12-29T00:49:56;28.33;;;25.60;;
63203;SDS011;49297;43.210;27.914;2023-12-29T00:52:22;29.00;;;25.95;;
63203;SDS011;49297;43.210;27.914;2023-12-29T00:54:48;30.95;;;27.77;;
63203;SDS011;49297;43.210;27.914;2023-12-29T00:57:14;32.25;;;27.95;;
63203;SDS011;49297;43.210;27.914;2023-12-29T00:59:40;30.48;;;27.52;;
63203;SDS011;49297;43.210;27.914;2023-12-29T01:02:12;29.95;;;26.73;;
63203;SDS011;49297;43.210;27.914;2023-12-29T01:04:38;32.53;;;29.42;;
63203;SDS011;49297;43.210;27.914;2023-12-29T01:07:04;33.17;;;29.80;;
63203;SDS011;49297;43.210;27.914;2023-12-29T01:09:30;35.78;;;30.88;;
63203;SDS011;49297;43.210;27.914;2023-12-29T01:11:56;35.75;;;29.40;;
63203;SDS011;49297;43.210;27.914;2023-12-29T01:14:22;23.65;;;19.85;;
63203;SDS011;49297;43.210;27.914;2023-12-29T01:16:48;29.60;;;26.10;;
63203;SDS011;49297;43.210;27.914;2023-12-29T01:19:14;32.92;;;27.83;;
63203;SDS011;49297;43.210;27.914;2023-12-29T01:21:42;33.22;;;29.90;;
63203;SDS011;49297;43.210;27.914;2023-12-29T01:24:08;33.13;;;29.50;;
63203;SDS011;49297;43.210;27.914;2023-12-29T01:26:39;32.90;;;28.37;;
63203;SDS011;49297;43.210;27.914;2023-12-29T01:29:05;34.58;;;28.30;;
63203;SDS011;49297;43.210;27.914;2023-12-29T01:31:31;30.47;;;27.30;;
63203;SDS011;49297;43.210;27.914;2023-12-29T01:33:57;31.05;;;27.75;;
63203;SDS011;49297;43.210;27.914;2023-12-29T01:36:23;32.60;;;29.08;;
63203;SDS011;49297;43.210;27.914;2023-12-29T01:38:49;32.80;;;28.33;;
63203;SDS011;49297;43.210;27.914;2023-12-29T01:41:15;38.33;;;34.20;;
63203;SDS011;49297;43.210;27.914;2023-12-29T01:46:24;30.05;;;26.33;;
63203;SDS011;49297;43.210;27.914;2023-12-29T01:49:00;36.85;;;30.17;;
63203;SDS011;49297;43.210;27.914;2023-12-29T01:51:26;36.78;;;32.63;;
63203;SDS011;49297;43.210;27.914;2023-12-29T01:53:55;37.53;;;31.33;;
63203;SDS011;49297;43.210;27.914;2023-12-29T01:56:22;33.00;;;29.63;;
63203;SDS011;49297;43.210;27.914;2023-12-29T01:58:48;30.88;;;27.65;;
63203;SDS011;49297;43.210;27.914;2023-12-29T02:01:15;32.63;;;26.77;;
63203;SDS011;49297;43.210;27.914;2023-12-29T02:03:44;31.58;;;27.55;;
63203;SDS011;49297;43.210;27.914;2023-12-29T02:08:42;27.87;;;24.73;;
63203;SDS011;49297;43.210;27.914;2023-12-29T02:11:08;26.70;;;23.53;;
63203;SDS011;49297;43.210;27.914;2023-12-29T02:13:33;27.50;;;24.52;;
63203;SDS011;49297;43.210;27.914;2023-12-29T02:16:02;28.55;;;25.55;;
63203;SDS011;49297;43.210;27.914;2023-12-29T02:18:34;27.33;;;24.58;;
63203;SDS011;49297;43.210;27.914;2023-12-29T02:21:03;27.15;;;23.58;;
63203;SDS011;49297;43.210;27.914;2023-12-29T02:23:29;24.30;;;21.80;;
63203;SDS011;49297;43.210;27.914;2023-12-29T02:25:55;24.40;;;21.80;;
63203;SDS011;49297;43.210;27.914;2023-12-29T02:28:27;26.27;;;21.52;;
63203;SDS011;49297;43.210;27.914;2023-12-29T02:30:59;22.67;;;20.35;;
63203;SDS011;49297;43.210;27.914;2023-12-29T02:33:32;24.63;;;21.85;;
63203;SDS011;49297;43.210;27.914;2023-12-29T02:36:03;23.77;;;21.17;;
63203;SDS011;49297;43.210;27.914;2023-12-29T02:38:31;22.13;;;19.95;;
63203;SDS011;49297;43.210;27.914;2023-12-29T02:40:58;29.92;;;23.52;;
63203;SDS011;49297;43.210;27.914;2023-12-29T02:43:24;30.98;;;27.90;;
63203;SDS011;49297;43.210;27.914;2023-12-29T02:45:50;35.07;;;31.37;;
63203;SDS011;49297;43.210;27.914;2023-12-29T02:48:16;35.88;;;32.08;;
63203;SDS011;49297;43.210;27.914;2023-12-29T02:50:42;36.33;;;32.78;;
63203;SDS011;49297;43.210;27.914;2023-12-29T02:53:08;35.90;;;32.22;;
63203;SDS011;49297;43.210;27.914;2023-12-29T02:55:41;36.88;;;32.53;;
63203;SDS011;49297;43.210;27.914;2023-12-29T02:58:08;33.60;;;29.63;;
63203;SDS011;49297;43.210;27.914;2023-12-29T03:00:34;31.63;;;28.55;;
63203;SDS011;49297;43.210;27.914;2023-12-29T03:03:00;33.92;;;28.05;;
63203;SDS011;49297;43.210;27.914;2023-12-29T03:05:26;27.60;;;24.73;;
63203;SDS011;49297;43.210;27.914;2023-12-29T03:07:51;29.50;;;26.40;;
63203;SDS011;49297;43.210;27.914;2023-12-29T03:10:17;27.27;;;24.42;;
63203;SDS011;49297;43.210;27.914;2023-12-29T03:12:44;30.25;;;24.35;;
63203;SDS011;49297;43.210;27.914;2023-12-29T03:15:10;27.93;;;25.30;;
63203;SDS011;49297;43.210;27.914;2023-12-29T03:17:35;27.97;;;24.63;;
63203;SDS011;49297;43.210;27.914;2023-12-29T03:20:02;28.52;;;24.02;;
63203;SDS011;49297;43.210;27.914;2023-12-29T03:22:30;26.30;;;23.50;;
63203;SDS011;49297;43.210;27.914;2023-12-29T03:24:56;28.27;;;25.27;;
63203;SDS011;49297;43.210;27.914;2023-12-29T03:27:21;28.10;;;24.98;;
63203;SDS011;49297;43.210;27.914;2023-12-29T03:29:47;26.48;;;23.77;;
63203;SDS011;49297;43.210;27.914;2023-12-29T03:32:13;31.20;;;26.02;;
63203;SDS011;49297;43.210;27.914;2023-12-29T03:34:40;28.67;;;25.83;;
63203;SDS011;49297;43.210;27.914;2023-12-29T03:37:06;31.73;;;28.40;;
63203;SDS011;49297;43.210;27.914;2023-12-29T03:39:32;34.28;;;30.92;;
63203;SDS011;49297;43.210;27.914;2023-12-29T03:42:00;35.43;;;30.83;;
63203;SDS011;49297;43.210;27.914;2023-12-29T03:44:27;33.92;;;30.08;;
63203;SDS011;49297;43.210;27.914;2023-12-29T03:46:52;31.80;;;28.60;;
63203;SDS011;49297;43.210;27.914;2023-12-29T03:49:18;30.37;;;27.40;;
63203;SDS011;49297;43.210;27.914;2023-12-29T03:51:45;30.88;;;27.73;;
63203;SDS011;49297;43.210;27.914;2023-12-29T03:54:11;29.88;;;25.45;;
63203;SDS011;49297;43.210;27.914;2023-12-29T03:56:37;28.65;;;23.77;;
63203;SDS011;49297;43.210;27.914;2023-12-29T03:59:03;27.27;;;24.33;;
63203;SDS011;49297;43.210;27.914;2023-12-29T04:01:29;28.50;;;23.20;;
63203;SDS011;49297;43.210;27.914;2023-12-29T04:03:54;26.97;;;24.20;;
63203;SDS011;49297;43.210;27.914;2023-12-29T04:06:20;30.40;;;26.73;;
63203;SDS011;49297;43.210;27.914;2023-12-29T04:08:46;30.05;;;25.85;;
63203;SDS011;49297;43.210;27.914;2023-12-29T04:11:12;27.25;;;24.38;;
63203;SDS011;49297;43.210;27.914;2023-12-29T04:13:38;27.43;;;24.53;;
63203;SDS011;49297;43.210;27.914;2023-12-29T04:16:03;29.80;;;26.67;;
63203;SDS011;49297;43.210;27.914;2023-12-29T04:18:30;27.27;;;24.23;;
63203;SDS011;49297;43.210;27.914;2023-12-29T04:23:29;30.67;;;26.23;;
63203;SDS011;49297;43.210;27.914;2023-12-29T04:25:55;27.40;;;24.42;;
63203;SDS011;49297;43.210;27.914;2023-12-29T04:28:21;29.70;;;25.08;;
63203;SDS011;49297;43.210;27.914;2023-12-29T04:30:47;28.42;;;25.50;;
63203;SDS011;49297;43.210;27.914;2023-12-29T04:33:13;29.13;;;25.05;;
63203;SDS011;49297;43.210;27.914;2023-12-29T04:35:39;31.70;;;28.00;;
63203;SDS011;49297;43.210;27.914;2023-12-29T04:38:05;28.57;;;25.03;;
63203;SDS011;49297;43.210;27.914;2023-12-29T04:40:31;30.40;;;27.13;;
63203;SDS011;49297;43.210;27.914;2023-12-29T04:42:57;28.02;;;25.20;;
63203;SDS011;49297;43.210;27.914;2023-12-29T04:45:23;26.35;;;23.70;;
63203;SDS011;49297;43.210;27.914;2023-12-29T04:47:49;26.33;;;23.58;;
63203;SDS011;49297;43.210;27.914;2023-12-29T04:50:15;31.77;;;24.33;;
63203;SDS011;49297;43.210;27.914;2023-12-29T04:52:41;25.08;;;22.52;;
63203;SDS011;49297;43.210;27.914;2023-12-29T04:55:07;25.90;;;23.02;;
63203;SDS011;49297;43.210;27.914;2023-12-29T04:57:49;30.88;;;24.33;;
63203;SDS011;49297;43.210;27.914;2023-12-29T05:00:26;27.40;;;24.52;;
63203;SDS011;49297;43.210;27.914;2023-12-29T05:02:52;26.52;;;23.77;;
63203;SDS011;49297;43.210;27.914;2023-12-29T05:05:18;27.75;;;23.70;;
63203;SDS011;49297;43.210;27.914;2023-12-29T05:07:44;27.23;;;24.60;;
63203;SDS011;49297;43.210;27.914;2023-12-29T05:10:09;27.00;;;24.20;;
63203;SDS011;49297;43.210;27.914;2023-12-29T05:12:37;33.67;;;25.60;;
63203;SDS011;49297;43.210;27.914;2023-12-29T05:15:04;28.17;;;24.98;;
63203;SDS011;49297;43.210;27.914;2023-12-29T05:17:31;29.00;;;24.50;;
63203;SDS011;49297;43.210;27.914;2023-12-29T05:19:56;30.93;;;25.13;;
63203;SDS011;49297;43.210;27.914;2023-12-29T05:22:22;29.90;;;26.80;;
63203;SDS011;49297;43.210;27.914;2023-12-29T05:24:48;30.55;;;27.42;;
63203;SDS011;49297;43.210;27.914;2023-12-29T05:27:14;28.63;;;25.27;;
63203;SDS011;49297;43.210;27.914;2023-12-29T05:29:40;30.40;;;26.08;;
63203;SDS011;49297;43.210;27.914;2023-12-29T05:32:06;28.67;;;25.42;;
63203;SDS011;49297;43.210;27.914;2023-12-29T05:34:32;31.90;;;26.10;;
63203;SDS011;49297;43.210;27.914;2023-12-29T05:36:58;31.45;;;25.40;;
63203;SDS011;49297;43.210;27.914;2023-12-29T05:39:24;34.90;;;25.00;;
63203;SDS011;49297;43.210;27.914;2023-12-29T05:41:50;31.38;;;27.00;;
63203;SDS011;49297;43.210;27.914;2023-12-29T05:44:18;28.63;;;25.70;;
63203;SDS011;49297;43.210;27.914;2023-12-29T05:46:48;29.27;;;26.35;;
63203;SDS011;49297;43.210;27.914;2023-12-29T05:49:14;34.47;;;30.90;;
63203;SDS011;49297;43.210;27.914;2023-12-29T05:51:40;36.70;;;33.03;;
63203;SDS011;49297;43.210;27.914;2023-12-29T05:54:05;40.20;;;35.97;;
63203;SDS011;49297;43.210;27.914;2023-12-29T05:56:31;38.97;;;35.00;;
63203;SDS011;49297;43.210;27.914;2023-12-29T05:58:57;40.43;;;35.57;;
63203;SDS011;49297;43.210;27.914;2023-12-29T06:01:23;37.03;;;33.07;;
63203;SDS011;49297;43.210;27.914;2023-12-29T06:03:49;39.92;;;35.70;;
63203;SDS011;49297;43.210;27.914;2023-12-29T06:06:15;42.78;;;38.42;;
63203;SDS011;49297;43.210;27.914;2023-12-29T06:08:41;39.78;;;34.88;;
63203;SDS011;49297;43.210;27.914;2023-12-29T06:11:07;42.25;;;35.10;;
63203;SDS011;49297;43.210;27.914;2023-12-29T06:13:33;37.40;;;31.85;;
63203;SDS011;49297;43.210;27.914;2023-12-29T06:15:58;37.47;;;31.53;;
63203;SDS011;49297;43.210;27.914;2023-12-29T06:18:24;35.17;;;30.00;;
63203;SDS011;49297;43.210;27.914;2023-12-29T06:20:50;34.58;;;27.40;;
63203;SDS011;49297;43.210;27.914;2023-12-29T06:23:16;30.40;;;24.27;;
63203;SDS011;49297;43.210;27.914;2023-12-29T06:25:42;32.95;;;25.50;;
63203;SDS011;49297;43.210;27.914;2023-12-29T06:28:08;27.10;;;23.77;;
63203;SDS011;49297;43.210;27.914;2023-12-29T06:30:34;26.85;;;23.98;;
63203;SDS011;49297;43.210;27.914;2023-12-29T06:33:00;27.60;;;24.15;;
63203;SDS011;49297;43.210;27.914;2023-12-29T06:35:26;34.72;;;26.58;;
63203;SDS011;49297;43.210;27.914;2023-12-29T06:37:51;27.23;;;24.47;;
63203;SDS011;49297;43.210;27.914;2023-12-29T06:40:17;26.95;;;23.45;;
63203;SDS011;49297;43.210;27.914;2023-12-29T06:42:44;30.73;;;25.77;;
63203;SDS011;49297;43.210;27.914;2023-12-29T06:45:10;33.28;;;27.38;;
63203;SDS011;49297;43.210;27.914;2023-12-29T06:47:36;31.15;;;25.92;;
63203;SDS011;49297;43.210;27.914;2023-12-29T06:50:02;23.77;;;19.75;;
63203;SDS011;49297;43.210;27.914;2023-12-29T06:55:00;30.48;;;27.33;;
63203;SDS011;49297;43.210;27.914;2023-12-29T06:57:26;39.53;;;28.75;;
63203;SDS011;49297;43.210;27.914;2023-12-29T06:59:54;35.40;;;31.70;;
63203;SDS011;49297;43.210;27.914;2023-12-29T07:02:20;31.23;;;27.35;;
63203;SDS011;49297;43.210;27.914;2023-12-29T07:04:46;32.78;;;29.33;;
63203;SDS011;49297;43.210;27.914;2023-12-29T07:07:12;31.85;;;28.38;;
63203;SDS011;49297;43.210;27.914;2023-12-29T07:09:38;34.05;;;29.35;;
63203;SDS011;49297;43.210;27.914;2023-12-29T07:12:05;33.60;;;30.10;;
63203;SDS011;49297;43.210;27.914;2023-12-29T07:14:31;36.38;;;29.88;;
63203;SDS011;49297;43.210;27.914;2023-12-29T07:16:57;32.77;;;28.20;;
63203;SDS011;49297;43.210;27.914;2023-12-29T07:19:23;30.90;;;24.58;;
63203;SDS011;49297;43.210;27.914;2023-12-29T07:21:49;39.97;;;27.45;;
63203;SDS011;49297;43.210;27.914;2023-12-29T07:24:15;38.73;;;28.63;;
63203;SDS011;49297;43.210;27.914;2023-12-29T07:26:59;39.53;;;31.03;;
63203;SDS011;49297;43.210;27.914;2023-12-29T07:29:25;36.53;;;32.13;;
63203;SDS011;49297;43.210;27.914;2023-12-29T07:31:51;42.20;;;33.80;;
63203;SDS011;49297;43.210;27.914;2023-12-29T07:34:18;34.33;;;29.70;;
63203;SDS011;49297;43.210;27.914;2023-12-29T07:36:44;37.27;;;30.37;;
63203;SDS011;49297;43.210;27.914;2023-12-29T07:39:12;33.28;;;27.27;;
63203;SDS011;49297;43.210;27.914;2023-12-29T07:41:41;31.73;;;26.20;;
63203;SDS011;49297;43.210;27.914;2023-12-29T07:44:07;33.40;;;23.40;;
63203;SDS011;49297;43.210;27.914;2023-12-29T07:46:39;19.80;;;17.73;;
63203;SDS011;49297;43.210;27.914;2023-12-29T07:49:08;33.97;;;26.15;;
63203;SDS011;49297;43.210;27.914;2023-12-29T07:51:34;27.67;;;24.73;;
63203;SDS011;49297;43.210;27.914;2023-12-29T07:54:08;31.27;;;24.10;;
63203;SDS011;49297;43.210;27.914;2023-12-29T07:56:34;36.50;;;24.30;;
63203;SDS011;49297;43.210;27.914;2023-12-29T07:59:02;25.63;;;22.70;;
63203;SDS011;49297;43.210;27.914;2023-12-29T08:01:28;24.98;;;18.80;;
63203;SDS011;49297;43.210;27.914;2023-12-29T08:03:54;28.35;;;20.95;;
63203;SDS011;49297;43.210;27.914;2023-12-29T08:06:20;26.87;;;19.50;;
63203;SDS011;49297;43.210;27.914;2023-12-29T08:08:46;24.57;;;19.20;;
63203;SDS011;49297;43.210;27.914;2023-12-29T08:11:12;23.30;;;18.33;;
63203;SDS011;49297;43.210;27.914;2023-12-29T08:13:43;20.75;;;16.80;;
63203;SDS011;49297;43.210;27.914;2023-12-29T08:16:10;23.95;;;16.42;;
63203;SDS011;49297;43.210;27.914;2023-12-29T08:18:36;30.50;;;23.83;;
63203;SDS011;49297;43.210;27.914;2023-12-29T08:21:02;26.83;;;21.87;;
63203;SDS011;49297;43.210;27.914;2023-12-29T08:23:28;28.77;;;24.43;;
63203;SDS011;49297;43.210;27.914;2023-12-29T08:25:55;28.65;;;22.65;;
63203;SDS011;49297;43.210;27.914;2023-12-29T08:28:23;30.43;;;21.20;;
63203;SDS011;49297;43.210;27.914;2023-12-29T08:30:49;21.20;;;16.73;;
63203;SDS011;49297;43.210;27.914;2023-12-29T08:33:15;24.52;;;16.70;;
63203;SDS011;49297;43.210;27.914;2023-12-29T08:35:41;21.10;;;15.15;;
63203;SDS011;49297;43.210;27.914;2023-12-29T08:38:07;18.87;;;14.20;;
63203;SDS011;49297;43.210;27.914;2023-12-29T08:40:33;23.75;;;14.25;;
63203;SDS011;49297;43.210;27.914;2023-12-29T08:42:59;25.20;;;14.60;;
63203;SDS011;49297;43.210;27.914;2023-12-29T08:45:26;19.13;;;15.45;;
63203;SDS011;49297;43.210;27.914;2023-12-29T08:47:52;20.73;;;14.63;;
63203;SDS011;49297;43.210;27.914;2023-12-29T08:50:19;27.63;;;16.05;;
63203;SDS011;49297;43.210;27.914;2023-12-29T08:52:45;22.53;;;16.40;;
63203;SDS011;49297;43.210;27.914;2023-12-29T08:55:10;21.80;;;16.17;;
63203;SDS011;49297;43.210;27.914;2023-12-29T08:57:36;21.02;;;16.10;;
63203;SDS011;49297;43.210;27.914;2023-12-29T09:00:02;18.45;;;15.38;;
63203;SDS011;49297;43.210;27.914;2023-12-29T09:02:28;21.75;;;16.55;;
63203;SDS011;49297;43.210;27.914;2023-12-29T09:04:54;22.17;;;18.08;;
63203;SDS011;49297;43.210;27.914;2023-12-29T09:07:20;32.07;;;18.70;;
63203;SDS011;49297;43.210;27.914;2023-12-29T09:09:46;26.70;;;17.63;;
63203;SDS011;49297;43.210;27.914;2023-12-29T09:12:11;24.53;;;17.87;;
63203;SDS011;49297;43.210;27.914;2023-12-29T09:14:37;28.15;;;16.38;;
63203;SDS011;49297;43.210;27.914;2023-12-29T09:17:03;25.27;;;16.63;;
63203;SDS011;49297;43.210;27.914;2023-12-29T09:19:30;20.42;;;15.82;;
63203;SDS011;49297;43.210;27.914;2023-12-29T09:21:55;26.97;;;15.10;;
63203;SDS011;49297;43.210;27.914;2023-12-29T09:24:21;23.45;;;17.35;;
63203;SDS011;49297;43.210;27.914;2023-12-29T09:26:49;21.55;;;15.27;;
63203;SDS011;49297;43.210;27.914;2023-12-29T09:29:16;14.82;;;13.23;;
63203;SDS011;49297;43.210;27.914;2023-12-29T09:31:43;11.90;;;10.67;;
63203;SDS011;49297;43.210;27.914;2023-12-29T09:34:09;13.37;;;11.00;;
63203;SDS011;49297;43.210;27.914;2023-12-29T09:36:34;18.23;;;11.60;;
63203;SDS011;49297;43.210;27.914;2023-12-29T09:39:02;14.13;;;10.95;;
63203;SDS011;49297;43.210;27.914;2023-12-29T09:41:28;12.32;;;9.40;;
63203;SDS011;49297;43.210;27.914;2023-12-29T09:43:57;12.00;;;9.63;;
63203;SDS011;49297;43.210;27.914;2023-12-29T09:46:23;13.95;;;10.90;;
63203;SDS011;49297;43.210;27.914;2023-12-29T09:48:52;14.38;;;11.77;;
63203;SDS011;49297;43.210;27.914;2023-12-29T09:51:21;14.77;;;13.23;;
63203;SDS011;49297;43.210;27.914;2023-12-29T09:53:50;15.88;;;13.15;;
63203;SDS011;49297;43.210;27.914;2023-12-29T09:56:17;19.17;;;11.75;;
63203;SDS011;49297;43.210;27.914;2023-12-29T09:58:43;16.67;;;11.95;;
63203;SDS011;49297;43.210;27.914;2023-12-29T10:01:13;16.25;;;12.05;;
63203;SDS011;49297;43.210;27.914;2023-12-29T10:03:40;15.43;;;13.45;;
63203;SDS011;49297;43.210;27.914;2023-12-29T10:06:06;18.15;;;12.70;;
63203;SDS011;49297;43.210;27.914;2023-12-29T10:08:34;18.20;;;11.90;;
63203;SDS011;49297;43.210;27.914;2023-12-29T10:11:03;12.32;;;10.85;;
63203;SDS011;49297;43.210;27.914;2023-12-29T10:13:31;11.73;;;9.70;;
63203;SDS011;49297;43.210;27.914;2023-12-29T10:18:31;14.35;;;9.68;;
63203;SDS011;49297;43.210;27.914;2023-12-29T10:21:01;11.90;;;9.60;;
63203;SDS011;49297;43.210;27.914;2023-12-29T10:25:59;15.23;;;11.98;;
63203;SDS011;49297;43.210;27.914;2023-12-29T10:28:25;12.73;;;10.38;;
63203;SDS011;49297;43.210;27.914;2023-12-29T10:30:52;11.63;;;9.23;;
63203;SDS011;49297;43.210;27.914;2023-12-29T10:33:21;13.05;;;10.25;;
63203;SDS011;49297;43.210;27.914;2023-12-29T10:35:56;11.38;;;9.30;;
63203;SDS011;49297;43.210;27.914;2023-12-29T10:38:24;11.05;;;9.07;;
63203;SDS011;49297;43.210;27.914;2023-12-29T10:40:49;10.43;;;8.97;;
63203;SDS011;49297;43.210;27.914;2023-12-29T10:43:21;13.77;;;10.90;;
63203;SDS011;49297;43.210;27.914;2023-12-29T10:45:48;11.50;;;9.40;;
63203;SDS011;49297;43.210;27.914;2023-12-29T10:48:21;10.53;;;8.90;;
63203;SDS011;49297;43.210;27.914;2023-12-29T10:50:49;11.25;;;9.90;;
63203;SDS011;49297;43.210;27.914;2023-12-29T10:53:15;17.00;;;11.60;;
63203;SDS011;49297;43.210;27.914;2023-12-29T10:55:44;10.35;;;8.50;;
63203;SDS011;49297;43.210;27.914;2023-12-29T10:58:10;17.75;;;11.00;;
63203;SDS011;49297;43.210;27.914;2023-12-29T11:00:35;12.10;;;9.18;;
63203;SDS011;49297;43.210;27.914;2023-12-29T11:03:01;11.50;;;8.90;;
63203;SDS011;49297;43.210;27.914;2023-12-29T11:05:27;15.70;;;12.00;;
63203;SDS011;49297;43.210;27.914;2023-12-29T11:07:54;14.70;;;10.07;;
63203;SDS011;49297;43.210;27.914;2023-12-29T11:10:21;12.05;;;9.25;;
63203;SDS011;49297;43.210;27.914;2023-12-29T11:12:47;19.23;;;16.50;;
63203;SDS011;49297;43.210;27.914;2023-12-29T11:15:15;19.10;;;9.80;;
63203;SDS011;49297;43.210;27.914;2023-12-29T11:17:41;9.60;;;8.60;;
63203;SDS011;49297;43.210;27.914;2023-12-29T11:20:15;10.53;;;9.13;;
63203;SDS011;49297;43.210;27.914;2023-12-29T11:22:42;27.35;;;19.08;;
63203;SDS011;49297;43.210;27.914;2023-12-29T11:25:08;11.90;;;10.47;;
63203;SDS011;49297;43.210;27.914;2023-12-29T11:27:35;11.25;;;7.78;;
63203;SDS011;49297;43.210;27.914;2023-12-29T11:30:02;10.32;;;8.63;;
63203;SDS011;49297;43.210;27.914;2023-12-29T11:32:42;10.20;;;8.82;;
63203;SDS011;49297;43.210;27.914;2023-12-29T11:35:25;12.30;;;11.00;;
63203;SDS011;49297;43.210;27.914;2023-12-29T11:43:42;9.32;;;8.05;;
63203;SDS011;49297;43.210;27.914;2023-12-29T11:46:31;10.77;;;9.67;;
63203;SDS011;49297;43.210;27.914;2023-12-29T11:49:03;11.90;;;10.05;;
63203;SDS011;49297;43.210;27.914;2023-12-29T11:51:39;12.13;;;9.23;;
63203;SDS011;49297;43.210;27.914;2023-12-29T11:54:07;12.60;;;8.90;;
63203;SDS011;49297;43.210;27.914;2023-12-29T11:56:34;9.40;;;8.40;;
63203;SDS011;49297;43.210;27.914;2023-12-29T11:59:14;10.48;;;9.38;;
63203;SDS011;49297;43.210;27.914;2023-12-29T12:05:47;9.75;;;7.68;;
63203;SDS011;49297;43.210;27.914;2023-12-29T12:08:35;12.73;;;8.68;;
63203;SDS011;49297;43.210;27.914;2023-12-29T12:13:54;12.80;;;9.10;;
63203;SDS011;49297;43.210;27.914;2023-12-29T12:19:18;11.70;;;8.27;;
63203;SDS011;49297;43.210;27.914;2023-12-29T12:21:46;9.20;;;8.20;;
63203;SDS011;49297;43.210;27.914;2023-12-29T12:24:14;9.90;;;8.90;;
63203;SDS011;49297;43.210;27.914;2023-12-29T12:26:40;10.93;;;8.60;;
63203;SDS011;49297;43.210;27.914;2023-12-29T12:29:07;10.63;;;7.13;;
63203;SDS011;49297;43.210;27.914;2023-12-29T12:31:33;9.80;;;7.32;;
63203;SDS011;49297;43.210;27.914;2023-12-29T12:33:59;7.90;;;6.13;;
63203;SDS011;49297;43.210;27.914;2023-12-29T12:36:26;9.52;;;6.25;;
63203;SDS011;49297;43.210;27.914;2023-12-29T12:38:56;9.10;;;6.60;;
63203;SDS011;49297;43.210;27.914;2023-12-29T12:41:24;7.85;;;5.07;;
63203;SDS011;49297;43.210;27.914;2023-12-29T12:46:25;8.05;;;5.15;;
63203;SDS011;49297;43.210;27.914;2023-12-29T12:48:51;7.80;;;5.35;;
63203;SDS011;49297;43.210;27.914;2023-12-29T12:51:20;6.88;;;5.57;;
63203;SDS011;49297;43.210;27.914;2023-12-29T12:53:48;9.05;;;7.05;;
63203;SDS011;49297;43.210;27.914;2023-12-29T12:56:15;7.80;;;6.10;;
63203;SDS011;49297;43.210;27.914;2023-12-29T13:03:33;8.97;;;5.27;;
63203;SDS011;49297;43.210;27.914;2023-12-29T13:06:01;11.98;;;6.25;;
63203;SDS011;49297;43.210;27.914;2023-12-29T13:08:30;12.40;;;6.40;;
63203;SDS011;49297;43.210;27.914;2023-12-29T13:10:57;8.07;;;5.15;;
63203;SDS011;49297;43.210;27.914;2023-12-29T13:13:35;6.80;;;5.60;;
63203;SDS011;49297;43.210;27.914;2023-12-29T13:16:03;12.38;;;6.05;;
63203;SDS011;49297;43.210;27.914;2023-12-29T13:18:29;7.25;;;6.45;;
63203;SDS011;49297;43.210;27.914;2023-12-29T13:20:59;8.40;;;5.90;;
63203;SDS011;49297;43.210;27.914;2023-12-29T13:23:29;7.75;;;5.63;;
63203;SDS011;49297;43.210;27.914;2023-12-29T13:26:02;5.95;;;4.95;;
63203;SDS011;49297;43.210;27.914;2023-12-29T13:28:32;10.43;;;6.60;;
63203;SDS011;49297;43.210;27.914;2023-12-29T13:31:00;6.63;;;5.00;;
63203;SDS011;49297;43.210;27.914;2023-12-29T13:33:34;8.87;;;5.70;;
63203;SDS011;49297;43.210;27.914;2023-12-29T13:36:16;7.80;;;6.37;;
63203;SDS011;49297;43.210;27.914;2023-12-29T13:41:13;10.95;;;6.07;;
63203;SDS011;49297;43.210;27.914;2023-12-29T13:43:42;8.23;;;6.30;;
63203;SDS011;49297;43.210;27.914;2023-12-29T13:46:11;5.85;;;5.00;;
63203;SDS011;49297;43.210;27.914;2023-12-29T13:48:38;9.13;;;6.15;;
63203;SDS011;49297;43.210;27.914;2023-12-29T13:53:31;10.88;;;6.45;;
63203;SDS011;49297;43.210;27.914;2023-12-29T13:56:07;8.47;;;5.47;;
63203;SDS011;49297;43.210;27.914;2023-12-29T13:58:34;19.17;;;5.72;;
63203;SDS011;49297;43.210;27.914;2023-12-29T14:01:00;6.72;;;5.68;;
63203;SDS011;49297;43.210;27.914;2023-12-29T14:03:34;6.43;;;5.20;;
63203;SDS011;49297;43.210;27.914;2023-12-29T14:06:11;13.95;;;5.82;;
63203;SDS011;49297;43.210;27.914;2023-12-29T14:08:45;7.53;;;5.50;;
63203;SDS011;49297;43.210;27.914;2023-12-29T14:11:11;11.75;;;5.90;;
63203;SDS011;49297;43.210;27.914;2023-12-29T14:13:44;9.88;;;7.38;;
63203;SDS011;49297;43.210;27.914;2023-12-29T14:16:10;11.80;;;7.13;;
63203;SDS011;49297;43.210;27.914;2023-12-29T14:21:28;10.20;;;7.33;;
63203;SDS011;49297;43.210;27.914;2023-12-29T14:26:30;11.48;;;8.48;;
63203;SDS011;49297;43.210;27.914;2023-12-29T14:29:03;13.43;;;9.27;;
63203;SDS011;49297;43.210;27.914;2023-12-29T14:31:31;14.25;;;9.60;;
63203;SDS011;49297;43.210;27.914;2023-12-29T14:34:00;10.07;;;8.18;;
63203;SDS011;49297;43.210;27.914;2023-12-29T14:36:26;13.05;;;9.15;;
63203;SDS011;49297;43.210;27.914;2023-12-29T14:38:52;13.43;;;9.80;;
63203;SDS011;49297;43.210;27.914;2023-12-29T14:41:18;15.98;;;10.40;;
63203;SDS011;49297;43.210;27.914;2023-12-29T14:43:43;13.85;;;10.52;;
63203;SDS011;49297;43.210;27.914;2023-12-29T14:46:09;19.47;;;12.43;;
63203;SDS011;49297;43.210;27.914;2023-12-29T14:48:35;17.67;;;12.97;;
63203;SDS011;49297;43.210;27.914;2023-12-29T15:00:46;22.30;;;17.65;;
63203;SDS011;49297;43.210;27.914;2023-12-29T15:08:06;25.35;;;18.08;;
63203;SDS011;49297;43.210;27.914;2023-12-29T16:50:42;24.97;;;17.90;;
63203;SDS011;49297;43.210;27.914;2023-12-29T16:53:07;20.23;;;18.05;;
63203;SDS011;49297;43.210;27.914;2023-12-29T16:55:33;20.77;;;17.13;;
63203;SDS011;49297;43.210;27.914;2023-12-29T17:00:24;22.90;;;15.20;;
63203;SDS011;49297;43.210;27.914;2023-12-29T17:02:50;18.63;;;13.88;;